Time;durP1;ratioP1;P1;durP2;ratioP2;P2;SDS_P1;SDS_P2;PMS_P1;PMS_P2;Temp;Humidity;BMP_temperature;BMP_pressure;BME280_temperature;BME280_humidity;BME280_pressure;Samples;Min_cycle;Max_cycle;Signal;HPM_P1;HPM_P2
2023/10/18 00:00:48;;;;;;;49.85;32.75;;;;;;;;;;5028319;28;20399;-57
2023/10/18 00:03:13;;;;;;;50.90;32.70;;;;;;;;;;5029566;28;20018;-58
2023/10/18 00:05:41;;;;;;;59.08;37.85;;;;;;;;;;5029138;28;20464;-57
2023/10/18 00:08:09;;;;;;;51.72;33.90;;;;;;;;;;5030406;28;20028;-57
2023/10/18 00:10:34;;;;;;;40.25;24.23;;;;;;;;;;5028364;28;20040;-57
2023/10/18 00:12:59;;;;;;;59.35;35.65;;;;;;;;;;5029513;28;20018;-57
2023/10/18 00:15:25;;;;;;;71.37;38.77;;;;;;;;;;5028858;28;20037;-57
2023/10/18 00:17:50;;;;;;;61.45;32.63;;;;;;;;;;5029639;28;20047;-58
2023/10/18 00:20:25;;;;;;;55.67;35.13;;;;;;;;;;5028650;28;20040;-57
2023/10/18 00:22:50;;;;;;;56.08;35.33;;;;;;;;;;5033622;28;20024;-57
2023/10/18 00:25:20;;;;;;;56.50;34.10;;;;;;;;;;5032318;28;20492;-57
2023/10/18 00:27:45;;;;;;;69.90;37.22;;;;;;;;;;5033896;28;20021;-57
2023/10/18 00:30:11;;;;;;;52.70;32.47;;;;;;;;;;5032220;28;20040;-57
2023/10/18 00:32:36;;;;;;;60.25;37.95;;;;;;;;;;5033500;28;20024;-58
2023/10/18 00:35:12;;;;;;;54.35;33.50;;;;;;;;;;5031875;28;20045;-57
2023/10/18 00:37:38;;;;;;;56.70;33.95;;;;;;;;;;5033786;28;20025;-57
2023/10/18 00:40:07;;;;;;;61.47;36.47;;;;;;;;;;5031416;28;20408;-58
2023/10/18 00:42:35;;;;;;;54.42;34.10;;;;;;;;;;5033043;28;20485;-57
2023/10/18 00:45:08;;;;;;;52.90;33.85;;;;;;;;;;5032258;28;20033;-58
2023/10/18 00:47:34;;;;;;;61.72;35.72;;;;;;;;;;5033358;28;20022;-57
2023/10/18 00:49:59;;;;;;;50.55;29.73;;;;;;;;;;5031867;28;20373;-58
2023/10/18 00:52:26;;;;;;;53.15;32.85;;;;;;;;;;5033294;28;20017;-57
2023/10/18 00:54:51;;;;;;;52.20;32.95;;;;;;;;;;5011875;28;20026;-58
2023/10/18 00:57:20;;;;;;;62.57;32.60;;;;;;;;;;5019013;28;20092;-58
2023/10/18 00:59:46;;;;;;;50.42;31.85;;;;;;;;;;5032114;28;20459;-58
2023/10/18 01:02:13;;;;;;;47.35;29.73;;;;;;;;;;5032429;28;20443;-57
2023/10/18 01:04:40;;;;;;;55.47;33.22;;;;;;;;;;5030230;28;20400;-57
2023/10/18 01:07:13;;;;;;;50.60;31.40;;;;;;;;;;5032950;28;20025;-57
2023/10/18 01:09:44;;;;;;;57.97;29.42;;;;;;;;;;5031291;28;20120;-56
2023/10/18 01:12:09;;;;;;;52.22;31.27;;;;;;;;;;5033133;28;20022;-57
2023/10/18 01:14:35;;;;;;;54.15;35.78;;;;;;;;;;5032685;28;20040;-58
2023/10/18 01:17:01;;;;;;;48.97;30.55;;;;;;;;;;5030957;28;20545;-58
2023/10/18 01:19:26;;;;;;;49.28;30.45;;;;;;;;;;5032814;28;20025;-58
2023/10/18 01:21:52;;;;;;;49.40;32.17;;;;;;;;;;5031007;28;20045;-58
2023/10/18 01:24:18;;;;;;;44.67;30.85;;;;;;;;;;5032581;28;20488;-58
2023/10/18 01:26:44;;;;;;;47.67;31.75;;;;;;;;;;5030891;28;20459;-57
2023/10/18 01:29:09;;;;;;;51.53;33.42;;;;;;;;;;5032983;28;20025;-58
2023/10/18 01:31:35;;;;;;;48.97;33.38;;;;;;;;;;5030828;28;20378;-58
2023/10/18 01:34:10;;;;;;;50.65;33.88;;;;;;;;;;5032290;28;20051;-58
2023/10/18 01:36:39;;;;;;;49.40;34.22;;;;;;;;;;5030654;28;20044;-57
2023/10/18 01:39:07;;;;;;;50.13;31.52;;;;;;;;;;5032376;28;20455;-58
2023/10/18 01:41:38;;;;;;;43.22;29.30;;;;;;;;;;5030902;28;20036;-57
2023/10/18 01:44:06;;;;;;;49.22;31.17;;;;;;;;;;5032075;28;20492;-58
2023/10/18 01:46:33;;;;;;;;;;;;;;;;;;5031313;28;20096;-58
2023/10/18 01:48:59;;;;;;;47.45;32.33;;;;;;;;;;5032186;28;19916;-58
2023/10/18 01:51:24;;;;;;;48.20;29.77;;;;;;;;;;5030863;28;20049;-57
2023/10/18 01:53:50;;;;;;;43.63;28.75;;;;;;;;;;5031274;28;20062;-57
2023/10/18 01:56:19;;;;;;;42.65;29.33;;;;;;;;;;5031069;28;20049;-58
2023/10/18 01:58:46;;;;;;;60.88;32.13;;;;;;;;;;5032448;28;20034;-58
2023/10/18 02:01:12;;;;;;;46.63;31.40;;;;;;;;;;5030522;28;20037;-59
2023/10/18 02:03:39;;;;;;;44.47;31.75;;;;;;;;;;5031629;28;20013;-58
2023/10/18 02:06:06;;;;;;;46.35;30.95;;;;;;;;;;5030369;28;20515;-59
2023/10/18 02:08:33;;;;;;;53.78;33.92;;;;;;;;;;5031676;28;20014;-58
2023/10/18 02:10:58;;;;;;;44.58;32.78;;;;;;;;;;5030416;28;20065;-58
2023/10/18 02:13:23;;;;;;;47.63;33.88;;;;;;;;;;5031948;28;20476;-58
2023/10/18 02:15:50;;;;;;;49.00;33.80;;;;;;;;;;5029808;28;20045;-57
2023/10/18 02:18:16;;;;;;;49.63;33.10;;;;;;;;;;5031904;28;20443;-58
2023/10/18 02:20:50;;;;;;;48.95;28.85;;;;;;;;;;5030431;28;20072;-58
2023/10/18 02:23:15;;;;;;;47.60;32.75;;;;;;;;;;5031380;28;20026;-58
2023/10/18 02:28:08;;;;;;;50.33;33.13;;;;;;;;;;5031495;28;20056;-58
2023/10/18 02:30:34;;;;;;;49.78;31.40;;;;;;;;;;5029796;28;20033;-58
2023/10/18 02:33:02;;;;;;;47.88;30.25;;;;;;;;;;5031297;28;20025;-58
2023/10/18 02:35:27;;;;;;;46.25;29.63;;;;;;;;;;5029886;28;20132;-59
2023/10/18 02:37:53;;;;;;;52.53;33.85;;;;;;;;;;5030764;28;20104;-58
2023/10/18 02:40:29;;;;;;;49.60;31.17;;;;;;;;;;5029857;28;20044;-59
2023/10/18 02:42:55;;;;;;;49.00;31.55;;;;;;;;;;5030277;28;20988;-58
2023/10/18 02:45:22;;;;;;;45.00;29.48;;;;;;;;;;5029148;28;20610;-58
2023/10/18 02:47:51;;;;;;;48.00;31.45;;;;;;;;;;5031100;28;20024;-58
2023/10/18 02:50:17;;;;;;;49.72;32.58;;;;;;;;;;5029862;28;20036;-58
2023/10/18 02:52:42;;;;;;;55.00;33.03;;;;;;;;;;5030900;28;20029;-58
2023/10/18 02:55:11;;;;;;;55.13;30.13;;;;;;;;;;5028242;28;20044;-58
2023/10/18 02:57:37;;;;;;;39.53;29.30;;;;;;;;;;5031391;28;20756;-58
2023/10/18 03:00:10;;;;;;;42.00;30.98;;;;;;;;;;5028807;28;20041;-58
2023/10/18 03:02:38;;;;;;;45.20;32.50;;;;;;;;;;5031003;28;20116;-58
2023/10/18 03:05:06;;;;;;;41.55;27.90;;;;;;;;;;5029622;28;20110;-58
2023/10/18 03:07:31;;;;;;;40.80;30.93;;;;;;;;;;5031006;28;20036;-57
2023/10/18 03:10:11;;;;;;;44.90;29.47;;;;;;;;;;5029279;28;20026;-58
2023/10/18 03:12:36;;;;;;;47.50;28.55;;;;;;;;;;5016417;28;20806;-57
2023/10/18 03:15:08;;;;;;;43.17;29.47;;;;;;;;;;5027620;28;20041;-57
2023/10/18 03:17:36;;;;;;;44.17;29.38;;;;;;;;;;5030798;28;20505;-56
2023/10/18 03:20:07;;;;;;;43.00;27.67;;;;;;;;;;5028770;28;20038;-57
2023/10/18 03:22:32;;;;;;;45.90;33.20;;;;;;;;;;5030083;28;20955;-57
2023/10/18 03:25:00;;;;;;;47.37;30.40;;;;;;;;;;5028943;28;20036;-57
2023/10/18 03:27:33;;;;;;;49.42;32.17;;;;;;;;;;5030773;28;20436;-57
2023/10/18 03:29:59;;;;;;;45.38;29.58;;;;;;;;;;5028176;28;20476;-56
2023/10/18 03:32:24;;;;;;;44.38;26.30;;;;;;;;;;5030044;28;20029;-57
2023/10/18 03:34:52;;;;;;;41.90;29.60;;;;;;;;;;5026783;28;20049;-57
2023/10/18 03:37:21;;;;;;;43.90;29.63;;;;;;;;;;5021314;28;20018;-57
2023/10/18 03:39:48;;;;;;;42.58;29.52;;;;;;;;;;5027751;28;20453;-57
2023/10/18 03:42:30;;;;;;;55.00;34.83;;;;;;;;;;5030803;28;20021;-57
2023/10/18 03:44:57;;;;;;;40.55;27.60;;;;;;;;;;5028860;28;20071;-57
2023/10/18 03:47:25;;;;;;;52.40;30.05;;;;;;;;;;5030804;28;20113;-57
2023/10/18 03:49:54;;;;;;;44.20;29.52;;;;;;;;;;5028870;28;20508;-58
2023/10/18 03:52:22;;;;;;;39.28;27.20;;;;;;;;;;5030392;28;20018;-58
2023/10/18 03:57:19;;;;;;;42.20;28.70;;;;;;;;;;5034254;28;20055;-58
2023/10/18 03:59:45;;;;;;;46.63;28.80;;;;;;;;;;5032701;28;20435;-57
2023/10/18 04:02:16;;;;;;;49.85;28.98;;;;;;;;;;5034173;28;20461;-57
2023/10/18 04:04:45;;;;;;;44.00;27.45;;;;;;;;;;5033028;28;20022;-57
2023/10/18 04:07:13;;;;;;;43.92;29.05;;;;;;;;;;5034019;28;20017;-57
2023/10/18 04:10:06;;;;;;;31.73;21.75;;;;;;;;;;5034605;28;20026;-57
2023/10/18 04:12:32;;;;;;;38.15;26.98;;;;;;;;;;5033036;28;20112;-57
2023/10/18 04:15:00;;;;;;;41.83;28.42;;;;;;;;;;5032317;28;20112;-57
2023/10/18 04:20:01;;;;;;;45.58;30.30;;;;;;;;;;5032396;28;20528;-57
2023/10/18 04:22:27;;;;;;;46.75;31.73;;;;;;;;;;5034149;28;20047;-57
2023/10/18 04:24:53;;;;;;;41.35;29.88;;;;;;;;;;5032371;28;20041;-57
2023/10/18 04:27:18;;;;;;;46.45;31.80;;;;;;;;;;5033835;28;20057;-57
2023/10/18 04:29:47;;;;;;;43.53;28.67;;;;;;;;;;5032061;28;20107;-57
2023/10/18 04:32:18;;;;;;;41.33;30.27;;;;;;;;;;5033943;28;20021;-57
2023/10/18 04:34:44;;;;;;;38.47;26.92;;;;;;;;;;5033294;28;20045;-57
2023/10/18 04:37:12;;;;;;;39.42;28.38;;;;;;;;;;5032107;28;20045;-57
2023/10/18 04:39:38;;;;;;;45.38;29.10;;;;;;;;;;5033728;28;20538;-57
2023/10/18 04:42:06;;;;;;;46.38;27.90;;;;;;;;;;5031654;28;20121;-57
2023/10/18 04:44:34;;;;;;;29.02;21.20;;;;;;;;;;5033477;28;20030;-57
2023/10/18 04:47:01;;;;;;;47.40;31.50;;;;;;;;;;5031940;28;20045;-57
2023/10/18 04:49:36;;;;;;;54.03;33.10;;;;;;;;;;5033697;28;20036;-57
2023/10/18 04:52:04;;;;;;;44.70;30.05;;;;;;;;;;5031916;28;20033;-57
2023/10/18 04:54:41;;;;;;;46.63;31.00;;;;;;;;;;5033760;28;20026;-57
2023/10/18 04:57:10;;;;;;;55.35;33.90;;;;;;;;;;5031450;28;20561;-57
2023/10/18 04:59:45;;;;;;;48.10;31.67;;;;;;;;;;5033560;28;20028;-57
2023/10/18 05:02:16;;;;;;;40.10;30.20;;;;;;;;;;5031530;28;20112;-57
2023/10/18 05:04:41;;;;;;;40.33;31.10;;;;;;;;;;5033267;28;20101;-57
2023/10/18 05:12:16;;;;;;;41.75;31.05;;;;;;;;;;5031108;28;20038;-57
2023/10/18 05:17:26;;;;;;;46.22;31.98;;;;;;;;;;5031761;28;20038;-57
2023/10/18 05:19:51;;;;;;;42.88;32.30;;;;;;;;;;5032584;28;20020;-57
2023/10/18 05:22:23;;;;;;;44.08;29.20;;;;;;;;;;5031422;28;20468;-57
2023/10/18 05:27:35;;;;;;;49.92;28.40;;;;;;;;;;5030807;28;20141;-57
2023/10/18 05:30:08;;;;;;;33.25;23.35;;;;;;;;;;5031247;28;20041;-57
2023/10/18 05:35:03;;;;;;;41.58;30.58;;;;;;;;;;5030156;28;20053;-57
2023/10/18 05:37:32;;;;;;;42.05;30.27;;;;;;;;;;5032652;28;20492;-57
2023/10/18 05:42:46;;;;;;;40.30;26.58;;;;;;;;;;5032170;28;20056;-57
2023/10/18 05:45:11;;;;;;;42.33;29.48;;;;;;;;;;5030995;28;20036;-56
2023/10/18 05:47:36;;;;;;;35.00;27.37;;;;;;;;;;5032467;28;20097;-57
2023/10/18 05:50:02;;;;;;;38.53;28.42;;;;;;;;;;5030764;28;20101;-57
2023/10/18 05:52:36;;;;;;;41.93;27.63;;;;;;;;;;5032568;28;20046;-57
2023/10/18 05:55:01;;;;;;;44.88;28.13;;;;;;;;;;5019653;28;20465;-57
2023/10/18 05:57:26;;;;;;;42.03;29.45;;;;;;;;;;5021568;28;20369;-57
2023/10/18 05:59:52;;;;;;;41.30;28.63;;;;;;;;;;5020848;28;20101;-57
2023/10/18 06:02:23;;;;;;;38.77;29.77;;;;;;;;;;5032085;28;20535;-57
2023/10/18 06:04:49;;;;;;;40.05;29.60;;;;;;;;;;5030519;28;20486;-57
2023/10/18 06:07:17;;;;;;;46.33;31.70;;;;;;;;;;5032328;28;20068;-56
2023/10/18 06:09:46;;;;;;;39.80;25.27;;;;;;;;;;5030973;28;20017;-56
2023/10/18 06:12:15;;;;;;;44.15;27.80;;;;;;;;;;5031641;28;20025;-56
2023/10/18 06:14:40;;;;;;;;;;;;;;;;;;5031362;28;20100;-55
2023/10/18 06:17:06;;;;;;;36.83;27.33;;;;;;;;;;5031866;28;20016;-56
2023/10/18 06:19:31;;;;;;;38.40;28.33;;;;;;;;;;5030959;28;20029;-57
2023/10/18 06:21:59;;;;;;;38.83;29.75;;;;;;;;;;5030136;28;20029;-56
2023/10/18 06:24:25;;;;;;;38.17;28.40;;;;;;;;;;5032121;28;20017;-56
2023/10/18 06:26:52;;;;;;;42.65;28.98;;;;;;;;;;5029670;28;20044;-56
2023/10/18 06:29:22;;;;;;;37.80;28.38;;;;;;;;;;5032235;28;20021;-56
2023/10/18 06:31:48;;;;;;;37.67;27.25;;;;;;;;;;5029968;28;20144;-56
2023/10/18 06:34:17;;;;;;;32.75;27.13;;;;;;;;;;5031111;28;20599;-56
2023/10/18 06:36:43;;;;;;;35.63;25.20;;;;;;;;;;5030212;28;20493;-56
2023/10/18 06:39:14;;;;;;;33.33;27.55;;;;;;;;;;5031520;28;20156;-57
2023/10/18 06:41:40;;;;;;;34.20;25.10;;;;;;;;;;5029264;28;20061;-56
2023/10/18 06:44:11;;;;;;;30.77;24.73;;;;;;;;;;5030298;28;20029;-56
2023/10/18 06:46:38;;;;;;;33.58;25.70;;;;;;;;;;5028402;28;20464;-57
2023/10/18 06:49:10;;;;;;;29.60;24.05;;;;;;;;;;5029477;28;20096;-56
2023/10/18 06:51:40;;;;;;;31.75;25.52;;;;;;;;;;5028206;28;20512;-57
2023/10/18 06:54:06;;;;;;;32.75;22.15;;;;;;;;;;5030207;28;20062;-57
2023/10/18 06:56:32;;;;;;;29.85;25.17;;;;;;;;;;5029364;28;20545;-57
2023/10/18 06:59:04;;;;;;;30.15;23.05;;;;;;;;;;5030929;28;20117;-56
2023/10/18 07:01:32;;;;;;;30.48;23.27;;;;;;;;;;5026544;28;20033;-56
2023/10/18 07:03:58;;;;;;;32.30;23.47;;;;;;;;;;5029532;28;20594;-56
2023/10/18 07:06:29;;;;;;;28.35;23.02;;;;;;;;;;5029697;28;20033;-56
2023/10/18 07:08:55;;;;;;;31.00;22.70;;;;;;;;;;5011250;28;20124;-56
2023/10/18 07:11:22;;;;;;;26.60;22.77;;;;;;;;;;5009491;28;20157;-56
2023/10/18 07:13:48;;;;;;;31.95;21.90;;;;;;;;;;5010960;28;20060;-56
2023/10/18 07:16:16;;;;;;;25.70;21.40;;;;;;;;;;5009828;28;20048;-56
2023/10/18 07:18:44;;;;;;;26.58;20.15;;;;;;;;;;5011371;28;20013;-56
2023/10/18 07:21:10;;;;;;;25.98;21.05;;;;;;;;;;5028908;28;20045;-56
2023/10/18 07:23:39;;;;;;;24.98;19.48;;;;;;;;;;5030721;28;20018;-56
2023/10/18 07:26:13;;;;;;;28.08;22.70;;;;;;;;;;5028734;28;20033;-56
2023/10/18 07:28:40;;;;;;;21.05;18.30;;;;;;;;;;5030940;28;20033;-56
2023/10/18 07:31:09;;;;;;;28.30;17.77;;;;;;;;;;5028592;28;20116;-57
2023/10/18 07:33:40;;;;;;;24.08;21.10;;;;;;;;;;5017848;28;20030;-56
2023/10/18 07:36:09;;;;;;;23.65;17.52;;;;;;;;;;5008664;28;20417;-56
2023/10/18 07:38:37;;;;;;;;;;;;;;;;;;5010071;28;20088;-57
2023/10/18 07:41:03;;;;;;;29.65;19.23;;;;;;;;;;5009081;28;20004;-56
2023/10/18 07:43:32;;;;;;;20.75;16.85;;;;;;;;;;5014216;28;20056;-56
2023/10/18 07:45:58;;;;;;;23.02;17.35;;;;;;;;;;5028377;28;20053;-56
2023/10/18 07:48:23;;;;;;;25.85;18.38;;;;;;;;;;5030330;28;20381;-57
2023/10/18 07:50:51;;;;;;;24.70;20.40;;;;;;;;;;5029005;28;20049;-57
2023/10/18 07:53:20;;;;;;;27.77;18.37;;;;;;;;;;5030196;28;20504;-57
2023/10/18 07:55:48;;;;;;;26.67;19.20;;;;;;;;;;5028053;28;20529;-56
2023/10/18 07:58:22;;;;;;;22.17;17.27;;;;;;;;;;5030507;28;20022;-57
2023/10/18 08:03:28;;;;;;;21.77;15.63;;;;;;;;;;5030108;28;20033;-56
2023/10/18 08:05:55;;;;;;;20.67;16.75;;;;;;;;;;5028749;28;20515;-56
2023/10/18 08:08:24;;;;;;;20.33;15.43;;;;;;;;;;5030653;28;20029;-56
2023/10/18 08:10:49;;;;;;;20.88;15.02;;;;;;;;;;5028334;28;20570;-56
2023/10/18 08:13:16;;;;;;;19.25;13.93;;;;;;;;;;5030369;28;20061;-56
2023/10/18 08:15:50;;;;;;;14.75;12.80;;;;;;;;;;5029042;28;20041;-56
2023/10/18 08:18:16;;;;;;;19.85;15.43;;;;;;;;;;5030248;28;20159;-56
2023/10/18 08:24:06;;;;;;;16.48;13.57;;;;;;;;;;5030491;28;20029;-56
2023/10/18 08:26:04;;;;;;;18.95;15.13;;;;;;;;;;5022581;28;20055;-56
2023/10/18 08:28:38;;;;;;;20.03;13.83;;;;;;;;;;5030125;28;20469;-56
2023/10/18 08:31:38;;;;;;;15.55;11.98;;;;;;;;;;5028742;28;20471;-56
2023/10/18 08:34:05;;;;;;;22.92;13.85;;;;;;;;;;5029710;28;20049;-56
2023/10/18 08:36:31;;;;;;;16.88;12.88;;;;;;;;;;5028745;28;20044;-56
2023/10/18 08:38:57;;;;;;;15.32;13.70;;;;;;;;;;5029759;28;20022;-56
2023/10/18 08:41:25;;;;;;;16.00;13.88;;;;;;;;;;5028895;28;20025;-56
2023/10/18 08:44:05;;;;;;;19.20;13.45;;;;;;;;;;5033723;28;20140;-56
2023/10/18 08:46:36;;;;;;;16.48;12.68;;;;;;;;;;5029782;28;20179;-56
2023/10/18 08:49:03;;;;;;;18.05;12.50;;;;;;;;;;5031224;28;20014;-56
2023/10/18 08:51:28;;;;;;;17.05;15.40;;;;;;;;;;5031804;28;20037;-56
2023/10/18 08:53:54;;;;;;;19.85;12.50;;;;;;;;;;5031715;28;20013;-56
2023/10/18 08:56:29;;;;;;;22.63;13.90;;;;;;;;;;5031769;28;20405;-56
2023/10/18 08:58:56;;;;;;;17.27;12.57;;;;;;;;;;5033081;28;20104;-56
2023/10/18 09:01:22;;;;;;;14.75;11.95;;;;;;;;;;5030609;28;20040;-56
2023/10/18 09:03:47;;;;;;;14.82;12.70;;;;;;;;;;5031712;28;20017;-56
2023/10/18 09:06:22;;;;;;;16.02;11.43;;;;;;;;;;5031743;28;20034;-56
2023/10/18 09:09:00;;;;;;;12.27;11.02;;;;;;;;;;5032780;28;20045;-56
2023/10/18 09:11:28;;;;;;;19.30;12.80;;;;;;;;;;5032037;28;20091;-56
2023/10/18 09:14:15;;;;;;;16.70;14.25;;;;;;;;;;5032830;28;20093;-56
2023/10/18 09:16:42;;;;;;;15.07;11.10;;;;;;;;;;5031229;28;20483;-56
2023/10/18 09:19:08;;;;;;;15.57;11.25;;;;;;;;;;5032982;28;20025;-56
2023/10/18 09:21:36;;;;;;;15.73;11.68;;;;;;;;;;5031499;28;20029;-56
2023/10/18 09:24:03;;;;;;;27.05;13.05;;;;;;;;;;5032295;28;20024;-56
2023/10/18 09:26:35;;;;;;;12.55;11.00;;;;;;;;;;5031590;28;20507;-56
2023/10/18 09:29:02;;;;;;;16.23;11.55;;;;;;;;;;5032838;28;20021;-56
2023/10/18 09:31:28;;;;;;;14.50;11.75;;;;;;;;;;5031001;28;20521;-56
2023/10/18 09:33:56;;;;;;;14.10;12.50;;;;;;;;;;5032388;28;20057;-56
2023/10/18 09:36:24;;;;;;;11.05;9.45;;;;;;;;;;5030783;28;20040;-57
2023/10/18 09:38:51;;;;;;;14.07;11.15;;;;;;;;;;5032313;28;20017;-56
2023/10/18 09:41:16;;;;;;;15.05;10.73;;;;;;;;;;5031299;28;20038;-56
2023/10/18 09:43:42;;;;;;;13.20;10.55;;;;;;;;;;5032413;28;20013;-56
2023/10/18 09:46:10;;;;;;;15.13;10.57;;;;;;;;;;5030838;28;20025;-56
2023/10/18 09:48:39;;;;;;;10.93;9.88;;;;;;;;;;5032779;28;20021;-56
2023/10/18 09:51:07;;;;;;;10.95;8.52;;;;;;;;;;5030729;28;20040;-56
2023/10/18 09:53:33;;;;;;;;;;;;;;;;;;5033002;28;20013;-56
2023/10/18 09:55:59;;;;;;;14.00;9.20;;;;;;;;;;5030772;28;19978;-56
2023/10/18 09:58:24;;;;;;;14.00;10.52;;;;;;;;;;5032305;28;20025;-56
2023/10/18 10:00:57;;;;;;;13.15;11.43;;;;;;;;;;5030322;28;20030;-56
2023/10/18 10:03:26;;;;;;;14.73;11.30;;;;;;;;;;5032277;28;20049;-56
2023/10/18 10:05:52;;;;;;;9.25;7.80;;;;;;;;;;5030555;28;20503;-56
2023/10/18 10:08:23;;;;;;;10.95;8.65;;;;;;;;;;5031883;28;20041;-56
2023/10/18 10:10:49;;;;;;;14.15;9.73;;;;;;;;;;5016294;28;20452;-56
2023/10/18 10:13:18;;;;;;;14.18;9.07;;;;;;;;;;5011862;28;20461;-56
2023/10/18 10:15:45;;;;;;;;;;;;;;;;;;5020036;28;20041;-56
2023/10/18 10:18:11;;;;;;;9.77;8.63;;;;;;;;;;5031874;28;19905;-56
2023/10/18 10:20:40;;;;;;;11.25;9.35;;;;;;;;;;5029537;28;20111;-56
2023/10/18 10:23:14;;;;;;;10.25;8.80;;;;;;;;;;5031349;28;20026;-56
2023/10/18 10:25:48;;;;;;;8.90;8.00;;;;;;;;;;5030396;28;20044;-56
2023/10/18 10:28:37;;;;;;;9.85;6.72;;;;;;;;;;5032068;28;20424;-56
2023/10/18 10:31:03;;;;;;;14.93;9.05;;;;;;;;;;5029428;28;20037;-56
2023/10/18 10:33:48;;;;;;;7.40;6.68;;;;;;;;;;5031268;28;20013;-56
2023/10/18 10:36:13;;;;;;;11.73;8.80;;;;;;;;;;5030213;28;20041;-56
2023/10/18 10:38:42;;;;;;;8.87;8.00;;;;;;;;;;5031501;28;20109;-56
2023/10/18 10:41:21;;;;;;;8.27;7.10;;;;;;;;;;5029873;28;20075;-56
2023/10/18 10:44:06;;;;;;;14.30;8.55;;;;;;;;;;5031372;28;20484;-56
2023/10/18 10:46:40;;;;;;;8.95;7.15;;;;;;;;;;5029604;28;20099;-56
2023/10/18 10:49:28;;;;;;;11.02;8.48;;;;;;;;;;5031342;28;20021;-56
2023/10/18 10:51:56;;;;;;;11.57;8.25;;;;;;;;;;5029733;28;20122;-56
2023/10/18 10:54:24;;;;;;;9.18;7.75;;;;;;;;;;5030959;28;20544;-56
2023/10/18 10:56:53;;;;;;;8.02;5.82;;;;;;;;;;5029306;28;20060;-56
2023/10/18 10:59:22;;;;;;;9.50;6.97;;;;;;;;;;5031506;28;20097;-56
2023/10/18 11:04:27;;;;;;;8.07;7.28;;;;;;;;;;5030837;28;20138;-56
2023/10/18 11:06:56;;;;;;;10.98;6.38;;;;;;;;;;5029335;28;20412;-56
2023/10/18 11:09:27;;;;;;;11.43;6.70;;;;;;;;;;5030988;28;20017;-56
2023/10/18 11:11:56;;;;;;;8.07;6.35;;;;;;;;;;5029349;28;20488;-56
2023/10/18 11:14:27;;;;;;;10.93;6.53;;;;;;;;;;5030979;28;20032;-56
2023/10/18 11:16:56;;;;;;;7.85;6.60;;;;;;;;;;5029112;28;20030;-56
2023/10/18 11:19:28;;;;;;;11.90;8.40;;;;;;;;;;5030918;28;20050;-56
2023/10/18 11:21:54;;;;;;;11.38;7.40;;;;;;;;;;5028703;28;20120;-56
2023/10/18 11:24:21;;;;;;;8.43;6.57;;;;;;;;;;5030585;28;20128;-56
2023/10/18 11:26:46;;;;;;;8.60;5.93;;;;;;;;;;5029327;28;20519;-56
2023/10/18 11:29:12;;;;;;;7.97;6.72;;;;;;;;;;5030432;28;20026;-55
2023/10/18 11:31:38;;;;;;;9.88;8.02;;;;;;;;;;5029039;28;20037;-56
2023/10/18 11:34:06;;;;;;;6.95;6.28;;;;;;;;;;5030407;28;20053;-56
2023/10/18 11:36:32;;;;;;;9.77;7.05;;;;;;;;;;5028844;28;20443;-56
2023/10/18 11:39:07;;;;;;;12.00;7.88;;;;;;;;;;5030624;28;20021;-56
2023/10/18 11:41:36;;;;;;;11.50;9.68;;;;;;;;;;5029146;28;20082;-56
2023/10/18 11:44:08;;;;;;;13.02;8.80;;;;;;;;;;5029825;28;20029;-56
2023/10/18 11:46:46;;;;;;;11.02;9.10;;;;;;;;;;5007675;28;20128;-56
2023/10/18 11:49:12;;;;;;;14.27;10.27;;;;;;;;;;4990972;28;20680;-56
2023/10/18 11:51:41;;;;;;;26.92;15.52;;;;;;;;;;4997866;28;20562;-56
2023/10/18 11:54:12;;;;;;;23.98;17.17;;;;;;;;;;5010533;28;20446;-56
2023/10/18 11:56:37;;;;;;;22.75;13.05;;;;;;;;;;5009253;28;20392;-57
2023/10/18 11:59:02;;;;;;;15.93;11.43;;;;;;;;;;5010183;28;20026;-56
2023/10/18 12:01:33;;;;;;;14.43;10.77;;;;;;;;;;5009139;28;20030;-56
2023/10/18 12:03:58;;;;;;;13.27;9.32;;;;;;;;;;5010545;28;20431;-56
2023/10/18 12:06:24;;;;;;;12.80;10.57;;;;;;;;;;5023125;28;20037;-56
2023/10/18 12:11:33;;;;;;;10.00;8.55;;;;;;;;;;5027849;28;20060;-56
2023/10/18 12:13:58;;;;;;;14.05;7.85;;;;;;;;;;5029210;28;20022;-57
2023/10/18 12:16:24;;;;;;;9.50;8.07;;;;;;;;;;5027758;28;20029;-56
2023/10/18 12:18:49;;;;;;;17.87;13.53;;;;;;;;;;5033933;28;20071;-56
2023/10/18 12:21:15;;;;;;;10.65;8.32;;;;;;;;;;5032434;28;20076;-56
2023/10/18 12:23:41;;;;;;;15.18;8.00;;;;;;;;;;5034252;28;20013;-56
2023/10/18 12:26:06;;;;;;;12.68;7.47;;;;;;;;;;5032149;28;20064;-55
2023/10/18 12:28:37;;;;;;;10.85;7.85;;;;;;;;;;5033691;28;20461;-56
2023/10/18 12:31:12;;;;;;;8.63;7.30;;;;;;;;;;5030734;28;20060;-56
2023/10/18 12:33:40;;;;;;;11.00;6.75;;;;;;;;;;5033929;28;20028;-55
2023/10/18 12:36:08;;;;;;;8.75;7.18;;;;;;;;;;5031937;28;20045;-56
2023/10/18 12:38:35;;;;;;;12.67;7.67;;;;;;;;;;5034173;28;20029;-56
2023/10/18 12:41:17;;;;;;;7.85;7.05;;;;;;;;;;5030834;28;20037;-56
2023/10/18 12:43:45;;;;;;;17.50;9.43;;;;;;;;;;5033077;28;20092;-56
2023/10/18 12:46:15;;;;;;;7.05;5.70;;;;;;;;;;5032206;28;20041;-56
2023/10/18 12:48:40;;;;;;;10.00;7.78;;;;;;;;;;5033756;28;20032;-56
2023/10/18 12:51:12;;;;;;;8.40;5.82;;;;;;;;;;5031632;28;20373;-56
2023/10/18 12:53:42;;;;;;;6.07;5.47;;;;;;;;;;5033945;28;20021;-55
2023/10/18 12:58:47;;;;;;;8.80;7.03;;;;;;;;;;5033549;28;20116;-55
2023/10/18 13:01:16;;;;;;;13.13;7.05;;;;;;;;;;5032073;28;20113;-55
2023/10/18 13:03:56;;;;;;;7.90;5.85;;;;;;;;;;5033123;28;20025;-55
2023/10/18 13:06:27;;;;;;;7.15;6.40;;;;;;;;;;5031450;28;20037;-55
2023/10/18 13:08:55;;;;;;;13.10;6.75;;;;;;;;;;5032904;28;20021;-58
2023/10/18 13:14:05;;;;;;;10.93;7.05;;;;;;;;;;5032898;28;20033;-56
2023/10/18 13:16:31;;;;;;;10.82;6.90;;;;;;;;;;5031650;28;20037;-56
2023/10/18 13:18:57;;;;;;;15.98;5.72;;;;;;;;;;5031770;28;20017;-56
2023/10/18 13:21:26;;;;;;;6.72;5.45;;;;;;;;;;5031410;28;20025;-56
2023/10/18 13:23:56;;;;;;;7.20;5.55;;;;;;;;;;5032894;28;20053;-56
2023/10/18 13:26:26;;;;;;;7.32;5.93;;;;;;;;;;5031558;28;20126;-56
2023/10/18 13:28:51;;;;;;;14.02;7.00;;;;;;;;;;5032179;28;20028;-56
2023/10/18 13:31:23;;;;;;;10.27;7.83;;;;;;;;;;5031568;28;20421;-56
2023/10/18 13:33:52;;;;;;;8.65;5.43;;;;;;;;;;5031294;28;20048;-56
2023/10/18 13:36:17;;;;;;;5.95;5.32;;;;;;;;;;5031154;28;20049;-56
2023/10/18 13:38:44;;;;;;;8.35;5.10;;;;;;;;;;5032640;28;20025;-56
2023/10/18 13:41:11;;;;;;;5.63;5.07;;;;;;;;;;5031089;28;20040;-56
2023/10/18 13:43:36;;;;;;;7.30;5.70;;;;;;;;;;5032462;28;20136;-56
2023/10/18 13:46:03;;;;;;;6.03;5.38;;;;;;;;;;5031137;28;20504;-56
2023/10/18 13:48:28;;;;;;;6.45;4.78;;;;;;;;;;5032924;28;20029;-56
2023/10/18 13:50:58;;;;;;;9.55;5.43;;;;;;;;;;5029104;28;20045;-56
2023/10/18 13:53:23;;;;;;;7.22;6.28;;;;;;;;;;5032419;28;20590;-56
2023/10/18 13:55:55;;;;;;;8.15;6.25;;;;;;;;;;5030611;28;20094;-56
2023/10/18 13:58:21;;;;;;;7.30;6.07;;;;;;;;;;5032389;28;20091;-56
2023/10/18 14:00:48;;;;;;;10.93;5.47;;;;;;;;;;5030910;28;20484;-56
2023/10/18 14:03:13;;;;;;;6.00;5.47;;;;;;;;;;5032049;28;20022;-56
2023/10/18 14:05:45;;;;;;;13.93;5.47;;;;;;;;;;5030316;28;20053;-56
2023/10/18 14:08:16;;;;;;;12.30;6.78;;;;;;;;;;5031774;28;20526;-56
2023/10/18 14:10:42;;;;;;;6.10;5.50;;;;;;;;;;5030783;28;20065;-56
2023/10/18 14:13:07;;;;;;;10.32;7.07;;;;;;;;;;5028959;28;20064;-56
2023/10/18 14:15:33;;;;;;;7.17;4.77;;;;;;;;;;5030434;28;20254;-56
2023/10/18 14:18:00;;;;;;;14.85;6.00;;;;;;;;;;5031693;28;20903;-57
2023/10/18 14:20:26;;;;;;;9.25;7.43;;;;;;;;;;5030304;28;20026;-56
2023/10/18 14:22:57;;;;;;;7.68;5.55;;;;;;;;;;5031686;28;20022;-56
2023/10/18 14:25:23;;;;;;;7.32;5.93;;;;;;;;;;5030474;28;20036;-56
2023/10/18 14:27:50;;;;;;;9.45;7.07;;;;;;;;;;5031438;28;20098;-56
2023/10/18 14:30:16;;;;;;;9.40;5.45;;;;;;;;;;5030184;28;20458;-56
2023/10/18 14:32:42;;;;;;;8.98;5.38;;;;;;;;;;5028317;28;20114;-56
2023/10/18 14:35:08;;;;;;;8.70;6.30;;;;;;;;;;5029177;28;20099;-56
2023/10/18 14:37:33;;;;;;;5.93;5.03;;;;;;;;;;5031713;28;20025;-56
2023/10/18 14:39:58;;;;;;;8.40;5.90;;;;;;;;;;5027795;28;20445;-56
2023/10/18 14:42:28;;;;;;;6.80;4.80;;;;;;;;;;5030958;28;20022;-56
2023/10/18 14:44:53;;;;;;;13.60;5.50;;;;;;;;;;5028255;28;20017;-56
2023/10/18 14:47:18;;;;;;;8.68;5.95;;;;;;;;;;5031224;28;20026;-56
2023/10/18 14:49:45;;;;;;;9.65;5.30;;;;;;;;;;5029148;28;20020;-56
2023/10/18 14:52:13;;;;;;;10.27;5.45;;;;;;;;;;5030805;28;20468;-56
2023/10/18 14:54:41;;;;;;;11.77;5.47;;;;;;;;;;5031314;28;20022;-56
2023/10/18 14:57:06;;;;;;;9.07;5.35;;;;;;;;;;5006635;28;20460;-55
2023/10/18 14:59:32;;;;;;;8.50;5.70;;;;;;;;;;5011492;28;20053;-56
2023/10/18 15:01:58;;;;;;;6.20;4.70;;;;;;;;;;5009674;28;20034;-56
2023/10/18 15:04:24;;;;;;;8.77;5.28;;;;;;;;;;5011142;28;20034;-55
2023/10/18 15:06:49;;;;;;;6.75;5.82;;;;;;;;;;5009481;28;20041;-55
2023/10/18 15:09:15;;;;;;;6.70;5.57;;;;;;;;;;5011452;28;20473;-56
2023/10/18 15:11:41;;;;;;;9.68;5.88;;;;;;;;;;5009470;28;20034;-55